createdAt,value
2022-10-09T00:00:29.071Z,11.45
2022-10-09T00:04:30.654Z,9.25
2022-10-09T00:08:34.829Z,11.02
2022-10-09T00:12:36.350Z,9.55
2022-10-09T00:16:37.886Z,10.02
2022-10-09T00:20:42.285Z,9.82
2022-10-09T00:24:43.832Z,9.88
2022-10-09T00:28:46.376Z,9.82
2022-10-09T00:32:48.171Z,9.88
2022-10-09T00:36:49.958Z,8.73
2022-10-09T00:40:51.988Z,10.15
2022-10-09T00:45:00.025Z,8.77
2022-10-09T00:49:23.526Z,11.88
2022-10-09T00:53:28.454Z,10.15
2022-10-09T00:57:32.686Z,9.40
2022-10-09T01:01:34.501Z,10.93
2022-10-09T01:05:57.343Z,10.02
2022-10-09T01:10:01.859Z,8.75
2022-10-09T01:14:28.857Z,8.68
2022-10-09T01:18:33.473Z,9.10
2022-10-09T01:22:50.839Z,7.25
2022-10-09T01:27:05.107Z,8.50
2022-10-09T01:31:07.939Z,10.75
2022-10-09T01:35:12.561Z,9.73
2022-10-09T01:39:18.265Z,7.28
2022-10-09T01:43:20.052Z,8.60
2022-10-09T01:47:22.215Z,10.70
2022-10-09T01:51:29.767Z,11.35
2022-10-09T01:55:50.137Z,10.95
2022-10-09T01:59:53.454Z,9.07
2022-10-09T02:03:58.339Z,11.02
2022-10-09T02:08:00.143Z,10.10
2022-10-09T02:12:06.636Z,9.88
2022-10-09T02:16:21.380Z,10.68
2022-10-09T02:20:31.020Z,9.38
2022-10-09T02:24:33.065Z,7.65
2022-10-09T02:28:35.217Z,9.98
2022-10-09T02:32:36.790Z,8.93
2022-10-09T02:36:39.232Z,8.65
2022-10-09T02:40:40.889Z,9.02
2022-10-09T02:44:42.600Z,7.60
2022-10-09T02:48:44.685Z,8.95
2022-10-09T02:52:46.447Z,10.15
2022-10-09T02:56:48.099Z,7.53
2022-10-09T03:00:50.755Z,7.75
2022-10-09T03:04:52.317Z,8.55
2022-10-09T03:08:54.831Z,10.40
2022-10-09T03:12:56.440Z,8.77
2022-10-09T03:16:57.881Z,9.07
2022-10-09T03:20:59.474Z,8.45
2022-10-09T03:25:01.012Z,8.98
2022-10-09T03:29:02.554Z,9.32
2022-10-09T03:33:03.990Z,7.38
2022-10-09T03:37:06.045Z,9.32
2022-10-09T03:41:07.653Z,7.88
2022-10-09T03:45:09.600Z,8.52
2022-10-09T03:49:11.108Z,7.05
2022-10-09T03:53:13.839Z,7.32
2022-10-09T03:57:15.402Z,11.88
2022-10-09T04:01:17.060Z,7.65
2022-10-09T04:05:18.812Z,8.77
2022-10-09T04:09:20.317Z,7.72
2022-10-09T04:13:21.736Z,7.68
2022-10-09T04:17:23.373Z,8.35
2022-10-09T04:21:25.046Z,8.70
2022-10-09T04:25:26.676Z,8.80
2022-10-09T04:29:28.176Z,9.75
2022-10-09T04:33:29.932Z,9.18
2022-10-09T04:37:31.454Z,7.47
2022-10-09T04:41:37.446Z,8.02
2022-10-09T04:45:40.598Z,6.80
2022-10-09T04:49:42.191Z,5.35
2022-10-09T04:53:44.601Z,7.45
2022-10-09T04:57:46.106Z,9.63
2022-10-09T05:01:47.642Z,7.10
2022-10-09T05:05:49.223Z,6.10
2022-10-09T05:09:50.823Z,7.55
2022-10-09T05:13:55.560Z,7.53
2022-10-09T05:17:57.204Z,5.90
2022-10-09T05:22:00.257Z,5.18
2022-10-09T05:26:07.296Z,6.93
2022-10-09T05:30:09.539Z,6.60
2022-10-09T05:34:11.415Z,6.53
2022-10-09T05:38:13.051Z,6.47
2022-10-09T05:42:14.558Z,6.05
2022-10-09T05:46:24.712Z,6.38
2022-10-09T05:50:26.264Z,6.63
2022-10-09T05:54:28.012Z,6.78
2022-10-09T05:58:29.538Z,5.15
2022-10-09T06:02:31.078Z,7.70
2022-10-09T06:06:35.672Z,5.55
2022-10-09T06:10:37.474Z,5.13
2022-10-09T06:14:39.098Z,7.40
2022-10-09T06:18:46.761Z,5.93
2022-10-09T06:22:51.738Z,7.07
2022-10-09T06:26:53.402Z,5.68
2022-10-09T06:31:01.592Z,4.70
2022-10-09T06:35:03.200Z,6.50
2022-10-09T06:39:06.824Z,6.68
2022-10-09T06:43:08.554Z,3.72
2022-10-09T06:47:10.094Z,5.60
2022-10-09T06:51:14.732Z,4.88
2022-10-09T06:55:16.312Z,4.85
2022-10-09T06:59:18.052Z,5.50
2022-10-09T07:03:19.566Z,4.53
2022-10-09T07:07:21.317Z,6.28
2022-10-09T07:11:38.726Z,4.97
2022-10-09T07:15:45.903Z,3.65
2022-10-09T07:19:49.104Z,4.60
2022-10-09T07:23:50.663Z,4.55
2022-10-09T07:27:52.273Z,4.45
2022-10-09T07:31:53.786Z,4.35
2022-10-09T07:35:56.900Z,4.50
2022-10-09T07:39:58.401Z,3.92
2022-10-09T07:44:00.380Z,5.65
2022-10-09T07:48:01.884Z,6.65
2022-10-09T07:52:03.406Z,5.05
2022-10-09T07:56:06.184Z,4.50
2022-10-09T08:00:08.445Z,6.53
2022-10-09T08:04:13.836Z,4.75
2022-10-09T08:08:15.569Z,8.45
2022-10-09T08:12:17.122Z,5.93
2022-10-09T08:16:20.555Z,4.10
2022-10-09T08:20:22.452Z,5.05
2022-10-09T08:24:24.009Z,4.20
2022-10-09T08:28:25.918Z,5.07
2022-10-09T08:32:27.525Z,5.97
2022-10-09T08:36:29.624Z,4.93
2022-10-09T08:40:47.037Z,4.70
2022-10-09T08:44:49.803Z,4.45
2022-10-09T08:48:53.879Z,6.50
2022-10-09T08:53:34.685Z,4.93
2022-10-09T08:57:36.361Z,6.25
2022-10-09T09:02:06.050Z,4.43
2022-10-09T09:06:07.604Z,6.60
2022-10-09T09:10:21.363Z,4.35
2022-10-09T09:14:37.789Z,5.53
2022-10-09T09:19:09.515Z,5.15
2022-10-09T09:23:15.752Z,4.68
2022-10-09T09:27:20.507Z,4.55
2022-10-09T09:31:27.200Z,4.32
2022-10-09T09:36:09.425Z,5.68
2022-10-09T09:40:36.823Z,7.32
2022-10-09T09:44:42.829Z,5.05
2022-10-09T09:48:48.535Z,5.00
2022-10-09T09:52:50.721Z,7.10
2022-10-09T09:57:14.826Z,11.15
2022-10-09T10:01:22.769Z,5.75
2022-10-09T10:05:27.289Z,5.05
2022-10-09T10:09:28.996Z,5.05
2022-10-09T10:13:39.476Z,4.90
2022-10-09T10:17:41.334Z,4.07
2022-10-09T10:22:01.332Z,4.55
2022-10-09T10:26:40.023Z,6.22
2022-10-09T10:30:42.811Z,5.30
2022-10-09T10:35:15.036Z,5.45
2022-10-09T10:39:50.879Z,4.47
2022-10-09T10:44:06.907Z,3.75
2022-10-09T10:48:22.213Z,4.75
2022-10-09T10:52:35.948Z,5.80
2022-10-09T10:56:53.281Z,5.57
2022-10-09T11:01:11.698Z,5.18
2022-10-09T11:05:31.736Z,3.90
2022-10-09T11:10:02.733Z,5.25
2022-10-09T11:14:29.128Z,4.30
2022-10-09T11:18:52.513Z,4.05
2022-10-09T11:23:10.597Z,2.92
2022-10-09T11:27:24.762Z,5.63
2022-10-09T11:31:34.989Z,6.43
2022-10-09T11:35:46.125Z,4.43
2022-10-09T11:39:48.214Z,3.92
2022-10-09T11:44:13.608Z,4.78
2022-10-09T11:48:42.576Z,4.28
2022-10-09T11:53:09.962Z,3.95
2022-10-09T11:57:15.107Z,6.30
2022-10-09T12:01:24.007Z,3.47
2022-10-09T12:05:37.880Z,4.80
2022-10-09T12:09:47.446Z,3.50
2022-10-09T12:13:58.282Z,4.30
2022-10-09T12:17:59.985Z,3.28
2022-10-09T12:22:13.321Z,2.92
2022-10-09T12:26:21.364Z,3.30
2022-10-09T12:30:29.139Z,4.10
2022-10-09T12:34:36.177Z,3.75
2022-10-09T12:38:38.236Z,3.50
2022-10-09T12:42:41.257Z,3.38
2022-10-09T12:46:43.097Z,3.30
2022-10-09T12:50:44.743Z,3.78
2022-10-09T12:54:46.272Z,4.07
2022-10-09T12:58:48.021Z,3.78
2022-10-09T13:02:49.974Z,4.22
2022-10-09T13:06:53.431Z,4.50
2022-10-09T13:10:55.807Z,4.88
2022-10-09T13:15:04.096Z,3.70
2022-10-09T13:19:24.474Z,3.45
2022-10-09T13:23:30.209Z,3.05
2022-10-09T13:27:35.258Z,3.67
2022-10-09T13:31:37.111Z,3.47
2022-10-09T13:35:42.027Z,4.63
2022-10-09T13:39:43.702Z,2.75
2022-10-09T13:43:45.767Z,3.00
2022-10-09T13:47:47.866Z,3.92
2022-10-09T13:51:49.809Z,3.95
2022-10-09T13:55:59.986Z,3.33
2022-10-09T14:00:04.014Z,3.80
2022-10-09T14:04:13.674Z,4.38
2022-10-09T14:08:15.473Z,3.85
2022-10-09T14:12:17.227Z,2.92
2022-10-09T14:16:21.509Z,4.60
2022-10-09T14:20:25.128Z,4.15
2022-10-09T14:24:27.575Z,4.65
2022-10-09T14:28:29.292Z,2.33
2022-10-09T14:32:41.754Z,4.25
2022-10-09T14:36:46.549Z,4.00
2022-10-09T14:40:48.316Z,3.78
2022-10-09T14:44:52.151Z,5.47
2022-10-09T14:48:57.928Z,4.15
2022-10-09T14:52:59.606Z,3.90
2022-10-09T14:57:03.544Z,3.90
2022-10-09T15:01:05.643Z,2.85
2022-10-09T15:05:08.492Z,6.00
2022-10-09T15:09:10.275Z,3.53
2022-10-09T15:13:12.009Z,4.38
2022-10-09T15:17:13.728Z,3.28
2022-10-09T15:21:18.616Z,4.03
2022-10-09T15:25:20.305Z,6.57
2022-10-09T15:29:22.110Z,5.30
2022-10-09T15:33:23.718Z,5.70
2022-10-09T15:37:25.380Z,5.45
2022-10-09T15:41:30.253Z,3.38
2022-10-09T15:45:34.606Z,3.13
2022-10-09T15:49:36.369Z,4.90
2022-10-09T15:53:38.792Z,4.38
2022-10-09T15:57:40.500Z,5.65
2022-10-09T16:01:42.770Z,6.57
2022-10-09T16:05:50.679Z,4.50
2022-10-09T16:09:54.588Z,4.13
2022-10-09T16:13:57.476Z,4.95
2022-10-09T16:17:59.067Z,4.50
2022-10-09T16:22:00.624Z,3.40
2022-10-09T16:26:03.612Z,6.55
2022-10-09T16:30:05.664Z,3.92
2022-10-09T16:34:07.977Z,5.15
2022-10-09T16:38:09.483Z,5.82
2022-10-09T16:42:11.794Z,8.98
2022-10-09T16:46:23.301Z,5.47
2022-10-09T16:50:25.605Z,3.60
2022-10-09T16:54:30.465Z,7.47
2022-10-09T16:58:32.153Z,5.35
2022-10-09T17:02:33.697Z,7.90
2022-10-09T17:06:35.596Z,7.15
2022-10-09T17:10:41.820Z,5.75
2022-10-09T17:14:43.509Z,5.15
2022-10-09T17:18:46.789Z,5.72
2022-10-09T17:22:49.033Z,5.25
2022-10-09T17:26:50.798Z,4.13
2022-10-09T17:30:52.415Z,6.80
2022-10-09T17:34:54.084Z,9.85
2022-10-09T17:38:56.469Z,6.88
2022-10-09T17:42:58.215Z,8.50
2022-10-09T17:47:00.849Z,9.13
2022-10-09T17:51:06.357Z,14.40
2022-10-09T17:55:11.230Z,10.00
2022-10-09T17:59:12.867Z,7.32
2022-10-09T18:03:15.536Z,8.95
2022-10-09T18:07:19.414Z,6.75
2022-10-09T18:11:23.430Z,6.03
2022-10-09T18:15:24.983Z,7.50
2022-10-09T18:19:26.665Z,6.85
2022-10-09T18:23:28.258Z,5.88
2022-10-09T18:27:29.901Z,6.70
2022-10-09T18:31:32.273Z,10.00
2022-10-09T18:35:38.586Z,8.13
2022-10-09T18:39:40.125Z,8.02
2022-10-09T18:43:41.875Z,7.10
2022-10-09T18:47:44.306Z,9.55
2022-10-09T18:51:47.253Z,8.43
2022-10-09T18:55:49.227Z,9.02
2022-10-09T18:59:52.683Z,8.77
2022-10-09T19:03:55.788Z,7.68
2022-10-09T19:07:57.614Z,8.38
2022-10-09T19:11:59.254Z,6.93
2022-10-09T19:16:04.569Z,6.45
2022-10-09T19:20:06.755Z,7.72
2022-10-09T19:24:08.762Z,8.95
2022-10-09T19:28:11.656Z,10.18
2022-10-09T19:32:13.338Z,8.32
2022-10-09T19:36:15.290Z,7.55
2022-10-09T19:40:16.844Z,10.45
2022-10-09T19:44:21.217Z,7.03
2022-10-09T19:48:24.290Z,7.88
2022-10-09T19:52:26.103Z,7.40
2022-10-09T19:56:30.909Z,8.20
2022-10-09T20:00:32.665Z,9.10
2022-10-09T20:04:34.466Z,8.38
2022-10-09T20:08:37.891Z,10.13
2022-10-09T20:12:39.764Z,8.48
2022-10-09T20:16:41.320Z,7.13
2022-10-09T20:20:47.750Z,7.28
2022-10-09T20:24:53.832Z,9.80
2022-10-09T20:28:55.743Z,6.00
2022-10-09T20:32:59.479Z,9.02
2022-10-09T20:37:01.457Z,5.80
2022-10-09T20:41:08.252Z,7.15
2022-10-09T20:45:09.964Z,7.35
2022-10-09T20:49:13.859Z,10.82
2022-10-09T20:53:16.607Z,7.78
2022-10-09T20:57:18.817Z,6.55
2022-10-09T21:01:21.724Z,6.80
2022-10-09T21:05:23.647Z,7.88
2022-10-09T21:09:28.484Z,9.20
2022-10-09T21:13:33.264Z,8.43
2022-10-09T21:17:35.323Z,7.80
2022-10-09T21:21:37.082Z,7.57
2022-10-09T21:25:39.235Z,9.63
2022-10-09T21:29:40.934Z,6.32
2022-10-09T21:33:42.596Z,8.68
2022-10-09T21:37:44.203Z,7.15
2022-10-09T21:41:45.906Z,7.63
2022-10-09T21:45:50.101Z,10.13
2022-10-09T21:49:51.678Z,8.18
2022-10-09T21:53:54.484Z,8.48
2022-10-09T21:57:56.150Z,6.60
2022-10-09T22:01:57.732Z,9.20
2022-10-09T22:06:00.318Z,8.70
2022-10-09T22:10:02.281Z,5.95
2022-10-09T22:14:05.458Z,7.15
2022-10-09T22:18:07.061Z,6.35
2022-10-09T22:22:08.855Z,8.82
2022-10-09T22:26:13.725Z,7.15
2022-10-09T22:30:15.966Z,5.93
2022-10-09T22:34:18.622Z,6.57
2022-10-09T22:38:20.260Z,8.20
2022-10-09T22:42:21.891Z,7.07
2022-10-09T22:46:30.165Z,9.23
2022-10-09T22:50:31.778Z,5.00
2022-10-09T22:54:33.446Z,7.65
2022-10-09T22:58:35.771Z,6.53
2022-10-09T23:02:37.396Z,6.88
2022-10-09T23:06:40.167Z,8.32
2022-10-09T23:10:42.003Z,7.10
2022-10-09T23:14:43.660Z,10.57
2022-10-09T23:18:45.678Z,6.80
2022-10-09T23:22:47.561Z,9.50
2022-10-09T23:26:50.887Z,7.47
2022-10-09T23:30:52.644Z,7.80
2022-10-09T23:34:54.205Z,8.32
2022-10-09T23:38:56.796Z,8.95
2022-10-09T23:42:58.469Z,9.15
2022-10-09T23:47:00.135Z,10.45
2022-10-09T23:51:02.571Z,6.22
2022-10-09T23:55:04.696Z,5.18
2022-10-09T23:59:06.480Z,7.43
